sensor_id;sensor_type;location;lat;lon;timestamp;P1;durP1;ratioP1;P2;durP2;ratioP2
35304;SDS011;26433;48.034;-1.764;2023-02-27T06:03:27;4.07;;;0.40;;
35304;SDS011;26433;48.034;-1.764;2023-02-27T06:08:33;4.03;;;0.30;;
35304;SDS011;26433;48.034;-1.764;2023-02-27T06:18:44;0.32;;;0.30;;
35304;SDS011;26433;48.034;-1.764;2023-02-27T06:23:48;0.47;;;0.40;;
35304;SDS011;26433;48.034;-1.764;2023-02-27T06:28:51;2.22;;;0.40;;
35304;SDS011;26433;48.034;-1.764;2023-02-27T06:33:56;2.47;;;0.57;;
35304;SDS011;26433;48.034;-1.764;2023-02-27T06:39:00;1.27;;;0.37;;
35304;SDS011;26433;48.034;-1.764;2023-02-27T06:44:05;1.15;;;0.52;;
35304;SDS011;26433;48.034;-1.764;2023-02-27T06:49:10;0.37;;;0.37;;
35304;SDS011;26433;48.034;-1.764;2023-02-27T06:54:14;0.77;;;0.40;;
35304;SDS011;26433;48.034;-1.764;2023-02-27T06:59:18;2.33;;;1.05;;
35304;SDS011;26433;48.034;-1.764;2023-02-27T07:04:23;2.17;;;0.60;;
35304;SDS011;26433;48.034;-1.764;2023-02-27T07:09:27;0.40;;;0.40;;
35304;SDS011;26433;48.034;-1.764;2023-02-27T07:14:30;0.85;;;0.32;;
35304;SDS011;26433;48.034;-1.764;2023-02-27T07:19:36;0.90;;;0.37;;
35304;SDS011;26433;48.034;-1.764;2023-02-27T07:24:39;0.65;;;0.55;;
35304;SDS011;26433;48.034;-1.764;2023-02-27T07:29:43;3.30;;;0.85;;
35304;SDS011;26433;48.034;-1.764;2023-02-27T07:34:48;5.37;;;0.80;;
35304;SDS011;26433;48.034;-1.764;2023-02-27T07:39:52;2.67;;;0.60;;
35304;SDS011;26433;48.034;-1.764;2023-02-27T07:44:56;0.62;;;0.60;;
35304;SDS011;26433;48.034;-1.764;2023-02-27T07:50:02;1.37;;;0.70;;
35304;SDS011;26433;48.034;-1.764;2023-02-27T07:55:06;0.75;;;0.40;;
35304;SDS011;26433;48.034;-1.764;2023-02-27T08:00:11;5.62;;;0.70;;
35304;SDS011;26433;48.034;-1.764;2023-02-27T08:05:17;0.57;;;0.43;;
35304;SDS011;26433;48.034;-1.764;2023-02-27T08:10:21;1.33;;;0.62;;
35304;SDS011;26433;48.034;-1.764;2023-02-27T08:15:24;1.60;;;0.60;;
35304;SDS011;26433;48.034;-1.764;2023-02-27T08:20:29;1.30;;;0.68;;
35304;SDS011;26433;48.034;-1.764;2023-02-27T08:25:33;1.50;;;0.70;;
35304;SDS011;26433;48.034;-1.764;2023-02-27T08:30:36;1.33;;;0.73;;
35304;SDS011;26433;48.034;-1.764;2023-02-27T08:35:41;1.77;;;0.60;;
35304;SDS011;26433;48.034;-1.764;2023-02-27T08:40:45;0.75;;;0.50;;
35304;SDS011;26433;48.034;-1.764;2023-02-27T08:45:49;3.55;;;0.95;;
35304;SDS011;26433;48.034;-1.764;2023-02-27T08:50:54;0.98;;;0.57;;
35304;SDS011;26433;48.034;-1.764;2023-02-27T08:55:58;6.80;;;1.10;;
35304;SDS011;26433;48.034;-1.764;2023-02-27T09:01:02;4.78;;;0.55;;
35304;SDS011;26433;48.034;-1.764;2023-02-27T09:06:07;1.73;;;0.82;;
35304;SDS011;26433;48.034;-1.764;2023-02-27T09:11:11;0.52;;;0.37;;
35304;SDS011;26433;48.034;-1.764;2023-02-27T09:16:15;0.40;;;0.30;;
35304;SDS011;26433;48.034;-1.764;2023-02-27T09:26:25;1.42;;;0.50;;
35304;SDS011;26433;48.034;-1.764;2023-02-27T09:31:44;1.42;;;0.80;;
35304;SDS011;26433;48.034;-1.764;2023-02-27T09:36:49;1.60;;;0.50;;
35304;SDS011;26433;48.034;-1.764;2023-02-27T09:41:57;1.33;;;0.35;;
35304;SDS011;26433;48.034;-1.764;2023-02-27T09:47:05;0.37;;;0.30;;
35304;SDS011;26433;48.034;-1.764;2023-02-27T09:52:16;1.10;;;0.40;;
35304;SDS011;26433;48.034;-1.764;2023-02-27T09:57:22;0.90;;;0.30;;
35304;SDS011;26433;48.034;-1.764;2023-02-27T10:02:43;3.78;;;0.60;;
35304;SDS011;26433;48.034;-1.764;2023-02-27T10:08:00;0.20;;;0.20;;
35304;SDS011;26433;48.034;-1.764;2023-02-27T10:13:31;0.60;;;0.55;;
35304;SDS011;26433;48.034;-1.764;2023-02-27T10:18:46;1.27;;;0.60;;
35304;SDS011;26433;48.034;-1.764;2023-02-27T10:23:58;0.82;;;0.40;;
35304;SDS011;26433;48.034;-1.764;2023-02-27T10:29:13;0.57;;;0.40;;
35304;SDS011;26433;48.034;-1.764;2023-02-27T10:34:19;2.20;;;0.40;;
35304;SDS011;26433;48.034;-1.764;2023-02-27T10:39:26;0.62;;;0.43;;
35304;SDS011;26433;48.034;-1.764;2023-02-27T10:44:31;0.43;;;0.35;;
35304;SDS011;26433;48.034;-1.764;2023-02-27T10:49:35;0.30;;;0.30;;
35304;SDS011;26433;48.034;-1.764;2023-02-27T10:54:41;0.65;;;0.50;;
35304;SDS011;26433;48.034;-1.764;2023-02-27T10:59:50;0.62;;;0.30;;
35304;SDS011;26433;48.034;-1.764;2023-02-27T11:04:55;0.82;;;0.40;;
35304;SDS011;26433;48.034;-1.764;2023-02-27T11:10:04;0.65;;;0.50;;
35304;SDS011;26433;48.034;-1.764;2023-02-27T11:15:22;0.93;;;0.35;;
35304;SDS011;26433;48.034;-1.764;2023-02-27T11:20:31;0.40;;;0.32;;
35304;SDS011;26433;48.034;-1.764;2023-02-27T11:25:39;0.85;;;0.45;;
35304;SDS011;26433;48.034;-1.764;2023-02-27T11:30:42;0.40;;;0.37;;
35304;SDS011;26433;48.034;-1.764;2023-02-27T11:35:48;1.07;;;0.40;;
35304;SDS011;26433;48.034;-1.764;2023-02-27T11:41:01;1.33;;;0.50;;
35304;SDS011;26433;48.034;-1.764;2023-02-27T11:46:08;0.30;;;0.30;;
35304;SDS011;26433;48.034;-1.764;2023-02-27T11:51:37;0.25;;;0.25;;
35304;SDS011;26433;48.034;-1.764;2023-02-27T11:56:52;0.20;;;0.20;;
35304;SDS011;26433;48.034;-1.764;2023-02-27T12:01:59;0.60;;;0.37;;
35304;SDS011;26433;48.034;-1.764;2023-02-27T12:07:10;0.85;;;0.40;;
35304;SDS011;26433;48.034;-1.764;2023-02-27T12:12:20;1.80;;;0.52;;
35304;SDS011;26433;48.034;-1.764;2023-02-27T12:17:28;0.52;;;0.52;;
35304;SDS011;26433;48.034;-1.764;2023-02-27T12:22:36;0.50;;;0.10;;
35304;SDS011;26433;48.034;-1.764;2023-02-27T12:27:50;0.45;;;0.30;;
35304;SDS011;26433;48.034;-1.764;2023-02-27T12:32:59;0.40;;;0.40;;
35304;SDS011;26433;48.034;-1.764;2023-02-27T12:38:12;0.50;;;0.47;;
35304;SDS011;26433;48.034;-1.764;2023-02-27T12:43:21;0.95;;;0.40;;
35304;SDS011;26433;48.034;-1.764;2023-02-27T12:48:32;5.70;;;0.73;;
35304;SDS011;26433;48.034;-1.764;2023-02-27T12:59:21;0.40;;;0.22;;
35304;SDS011;26433;48.034;-1.764;2023-02-27T13:04:36;0.20;;;0.20;;
35304;SDS011;26433;48.034;-1.764;2023-02-27T13:09:46;0.77;;;0.47;;
35304;SDS011;26433;48.034;-1.764;2023-02-27T13:14:57;0.37;;;0.20;;
35304;SDS011;26433;48.034;-1.764;2023-02-27T13:20:08;0.30;;;0.30;;
35304;SDS011;26433;48.034;-1.764;2023-02-27T13:25:26;0.37;;;0.35;;
35304;SDS011;26433;48.034;-1.764;2023-02-27T13:30:34;0.40;;;0.40;;
35304;SDS011;26433;48.034;-1.764;2023-02-27T13:35:44;0.32;;;0.32;;
35304;SDS011;26433;48.034;-1.764;2023-02-27T13:40:52;0.30;;;0.30;;
35304;SDS011;26433;48.034;-1.764;2023-02-27T13:45:58;1.97;;;0.60;;
35304;SDS011;26433;48.034;-1.764;2023-02-27T13:51:03;1.05;;;0.40;;
35304;SDS011;26433;48.034;-1.764;2023-02-27T13:56:17;0.35;;;0.35;;
35304;SDS011;26433;48.034;-1.764;2023-02-27T14:01:25;0.45;;;0.30;;
35304;SDS011;26433;48.034;-1.764;2023-02-27T14:06:30;1.48;;;0.70;;
35304;SDS011;26433;48.034;-1.764;2023-02-27T14:11:34;0.93;;;0.35;;
35304;SDS011;26433;48.034;-1.764;2023-02-27T14:16:55;1.12;;;0.40;;
35304;SDS011;26433;48.034;-1.764;2023-02-27T14:22:00;2.47;;;0.30;;
35304;SDS011;26433;48.034;-1.764;2023-02-27T14:27:13;0.43;;;0.43;;
35304;SDS011;26433;48.034;-1.764;2023-02-27T14:32:23;0.57;;;0.30;;
35304;SDS011;26433;48.034;-1.764;2023-02-27T14:37:27;0.70;;;0.50;;
35304;SDS011;26433;48.034;-1.764;2023-02-27T14:42:36;0.52;;;0.45;;
35304;SDS011;26433;48.034;-1.764;2023-02-27T14:47:49;2.10;;;0.57;;
35304;SDS011;26433;48.034;-1.764;2023-02-27T14:52:54;1.25;;;0.40;;
35304;SDS011;26433;48.034;-1.764;2023-02-27T14:57:58;0.40;;;0.40;;
35304;SDS011;26433;48.034;-1.764;2023-02-27T15:03:15;1.48;;;0.50;;
35304;SDS011;26433;48.034;-1.764;2023-02-27T15:08:22;0.50;;;0.30;;
35304;SDS011;26433;48.034;-1.764;2023-02-27T15:13:28;4.93;;;0.50;;
35304;SDS011;26433;48.034;-1.764;2023-02-27T15:18:35;1.23;;;0.52;;
35304;SDS011;26433;48.034;-1.764;2023-02-27T15:23:42;1.48;;;0.55;;
35304;SDS011;26433;48.034;-1.764;2023-02-27T15:28:46;0.82;;;0.60;;
35304;SDS011;26433;48.034;-1.764;2023-02-27T15:33:52;1.10;;;0.57;;
35304;SDS011;26433;48.034;-1.764;2023-02-27T15:39:04;0.57;;;0.57;;
35304;SDS011;26433;48.034;-1.764;2023-02-27T15:44:10;0.68;;;0.32;;
35304;SDS011;26433;48.034;-1.764;2023-02-27T15:49:18;0.20;;;0.20;;
35304;SDS011;26433;48.034;-1.764;2023-02-27T15:54:23;0.90;;;0.47;;
35304;SDS011;26433;48.034;-1.764;2023-02-27T15:59:27;0.77;;;0.40;;
35304;SDS011;26433;48.034;-1.764;2023-02-27T16:04:35;0.28;;;0.25;;
35304;SDS011;26433;48.034;-1.764;2023-02-27T16:09:39;0.90;;;0.40;;
35304;SDS011;26433;48.034;-1.764;2023-02-27T16:14:44;2.20;;;0.43;;
35304;SDS011;26433;48.034;-1.764;2023-02-27T16:19:49;0.97;;;0.50;;
35304;SDS011;26433;48.034;-1.764;2023-02-27T16:24:53;0.45;;;0.40;;
35304;SDS011;26433;48.034;-1.764;2023-02-27T16:30:10;0.85;;;0.40;;
35304;SDS011;26433;48.034;-1.764;2023-02-27T16:35:19;0.52;;;0.52;;
35304;SDS011;26433;48.034;-1.764;2023-02-27T16:40:25;0.35;;;0.35;;
35304;SDS011;26433;48.034;-1.764;2023-02-27T16:45:29;1.08;;;0.60;;
35304;SDS011;26433;48.034;-1.764;2023-02-27T16:50:38;1.37;;;0.70;;
35304;SDS011;26433;48.034;-1.764;2023-02-27T16:55:43;1.25;;;0.55;;
35304;SDS011;26433;48.034;-1.764;2023-02-27T17:00:47;0.53;;;0.50;;
35304;SDS011;26433;48.034;-1.764;2023-02-27T17:05:53;1.70;;;0.83;;
35304;SDS011;26433;48.034;-1.764;2023-02-27T17:10:58;1.05;;;0.60;;
35304;SDS011;26433;48.034;-1.764;2023-02-27T17:16:02;1.30;;;0.60;;
35304;SDS011;26433;48.034;-1.764;2023-02-27T17:21:07;1.33;;;0.88;;
35304;SDS011;26433;48.034;-1.764;2023-02-27T17:26:11;4.12;;;0.88;;
35304;SDS011;26433;48.034;-1.764;2023-02-27T17:31:15;0.52;;;0.43;;
35304;SDS011;26433;48.034;-1.764;2023-02-27T17:36:25;0.65;;;0.47;;
35304;SDS011;26433;48.034;-1.764;2023-02-27T17:41:29;1.52;;;0.60;;
35304;SDS011;26433;48.034;-1.764;2023-02-27T17:46:34;3.92;;;0.70;;
35304;SDS011;26433;48.034;-1.764;2023-02-27T17:51:39;1.23;;;1.00;;
35304;SDS011;26433;48.034;-1.764;2023-02-27T17:56:43;1.17;;;0.60;;
35304;SDS011;26433;48.034;-1.764;2023-02-27T18:01:46;2.27;;;0.70;;
35304;SDS011;26433;48.034;-1.764;2023-02-27T18:06:52;2.60;;;0.80;;
35304;SDS011;26433;48.034;-1.764;2023-02-27T18:11:55;2.80;;;1.15;;
35304;SDS011;26433;48.034;-1.764;2023-02-27T18:16:59;1.83;;;0.95;;
35304;SDS011;26433;48.034;-1.764;2023-02-27T18:22:04;0.90;;;0.67;;
35304;SDS011;26433;48.034;-1.764;2023-02-27T18:27:08;2.90;;;1.30;;
35304;SDS011;26433;48.034;-1.764;2023-02-27T18:32:12;2.60;;;1.20;;
35304;SDS011;26433;48.034;-1.764;2023-02-27T18:37:17;5.12;;;1.52;;
35304;SDS011;26433;48.034;-1.764;2023-02-27T18:42:20;3.60;;;0.73;;
35304;SDS011;26433;48.034;-1.764;2023-02-27T18:47:25;1.15;;;0.50;;
35304;SDS011;26433;48.034;-1.764;2023-02-27T18:52:33;3.25;;;1.02;;
35304;SDS011;26433;48.034;-1.764;2023-02-27T18:57:38;1.73;;;0.80;;
35304;SDS011;26433;48.034;-1.764;2023-02-27T19:02:41;3.80;;;1.10;;
35304;SDS011;26433;48.034;-1.764;2023-02-27T19:07:46;1.90;;;0.70;;
35304;SDS011;26433;48.034;-1.764;2023-02-27T19:12:50;1.10;;;0.85;;
35304;SDS011;26433;48.034;-1.764;2023-02-27T19:17:54;2.22;;;0.95;;
35304;SDS011;26433;48.034;-1.764;2023-02-27T19:22:59;2.00;;;0.70;;
35304;SDS011;26433;48.034;-1.764;2023-02-27T19:28:02;1.23;;;0.80;;
35304;SDS011;26433;48.034;-1.764;2023-02-27T19:33:07;4.35;;;1.02;;
35304;SDS011;26433;48.034;-1.764;2023-02-27T19:38:12;3.87;;;1.07;;
35304;SDS011;26433;48.034;-1.764;2023-02-27T19:43:15;2.45;;;1.00;;
35304;SDS011;26433;48.034;-1.764;2023-02-27T19:48:19;5.43;;;1.27;;
35304;SDS011;26433;48.034;-1.764;2023-02-27T19:53:24;0.95;;;0.85;;
35304;SDS011;26433;48.034;-1.764;2023-02-27T19:58:28;4.35;;;1.05;;
35304;SDS011;26433;48.034;-1.764;2023-02-27T20:03:34;3.12;;;1.10;;
35304;SDS011;26433;48.034;-1.764;2023-02-27T20:08:45;3.60;;;1.00;;
35304;SDS011;26433;48.034;-1.764;2023-02-27T20:13:49;1.35;;;1.00;;
35304;SDS011;26433;48.034;-1.764;2023-02-27T20:23:58;2.20;;;1.05;;
35304;SDS011;26433;48.034;-1.764;2023-02-27T20:29:04;2.17;;;1.00;;
35304;SDS011;26433;48.034;-1.764;2023-02-27T20:34:10;2.87;;;1.40;;
35304;SDS011;26433;48.034;-1.764;2023-02-27T20:39:18;4.20;;;1.48;;
35304;SDS011;26433;48.034;-1.764;2023-02-27T20:44:22;4.53;;;1.37;;
35304;SDS011;26433;48.034;-1.764;2023-02-27T20:49:26;3.00;;;0.88;;
35304;SDS011;26433;48.034;-1.764;2023-02-27T20:54:31;2.50;;;1.02;;
35304;SDS011;26433;48.034;-1.764;2023-02-27T20:59:35;1.30;;;0.80;;
35304;SDS011;26433;48.034;-1.764;2023-02-27T21:04:39;1.70;;;0.80;;
35304;SDS011;26433;48.034;-1.764;2023-02-27T21:09:49;1.55;;;0.90;;
35304;SDS011;26433;48.034;-1.764;2023-02-27T21:14:54;1.62;;;0.93;;
35304;SDS011;26433;48.034;-1.764;2023-02-27T21:19:57;4.18;;;0.90;;
35304;SDS011;26433;48.034;-1.764;2023-02-27T21:25:09;2.62;;;1.20;;
35304;SDS011;26433;48.034;-1.764;2023-02-27T21:30:12;2.35;;;0.90;;
35304;SDS011;26433;48.034;-1.764;2023-02-27T21:40:22;2.97;;;1.10;;
35304;SDS011;26433;48.034;-1.764;2023-02-27T21:45:25;2.35;;;1.08;;
35304;SDS011;26433;48.034;-1.764;2023-02-27T21:50:29;2.75;;;1.05;;
35304;SDS011;26433;48.034;-1.764;2023-02-27T21:55:36;1.37;;;0.80;;
35304;SDS011;26433;48.034;-1.764;2023-02-27T22:00:40;3.20;;;0.80;;
35304;SDS011;26433;48.034;-1.764;2023-02-27T22:05:43;2.28;;;1.10;;
35304;SDS011;26433;48.034;-1.764;2023-02-27T22:10:48;4.65;;;0.90;;
35304;SDS011;26433;48.034;-1.764;2023-02-27T22:16:01;2.53;;;1.00;;
35304;SDS011;26433;48.034;-1.764;2023-02-27T22:21:06;3.40;;;0.95;;
35304;SDS011;26433;48.034;-1.764;2023-02-27T22:26:15;1.87;;;0.88;;
35304;SDS011;26433;48.034;-1.764;2023-02-27T22:31:20;6.22;;;1.12;;
35304;SDS011;26433;48.034;-1.764;2023-02-27T22:36:26;1.83;;;1.20;;
35304;SDS011;26433;48.034;-1.764;2023-02-27T22:41:33;2.53;;;1.48;;
35304;SDS011;26433;48.034;-1.764;2023-02-27T22:46:39;3.03;;;0.80;;
35304;SDS011;26433;48.034;-1.764;2023-02-27T22:51:44;2.90;;;0.90;;
35304;SDS011;26433;48.034;-1.764;2023-02-27T22:56:53;3.08;;;1.10;;
35304;SDS011;26433;48.034;-1.764;2023-02-27T23:01:58;2.30;;;0.90;;
35304;SDS011;26433;48.034;-1.764;2023-02-27T23:07:02;1.65;;;0.77;;
35304;SDS011;26433;48.034;-1.764;2023-02-27T23:12:07;1.27;;;0.75;;
35304;SDS011;26433;48.034;-1.764;2023-02-27T23:17:11;1.90;;;1.20;;
35304;SDS011;26433;48.034;-1.764;2023-02-27T23:22:14;2.28;;;0.90;;
35304;SDS011;26433;48.034;-1.764;2023-02-27T23:27:19;1.67;;;1.10;;
